<?xml version="1.0" encoding="UTF-8" standalone="no" ?>
<gpx xmlns="http://www.topografix.com/GPX/1/1" xmlns:xsi="http://www.w3.org/2001/XMLSchema-instance" xsi:schemaLocation="http://www.topografix.com/GPX/1/1 http://www.topografix.com/GPX/1/1/gpx.xsd" version="1.1" creator="VisuGPX - https://www.visugpx.com">
  <metadata>
    <name>Marche nordique </name>
    <desc><![CDATA[Matinée fraiche mais sans vent avec quelques nuages alors qu\'il fait beau partout en France !]]></desc>
  </metadata>
  <trk>
    <name><![CDATA[6 avr. 2015 09:13:07]]></name>
    <cmt><![CDATA[6 avr. 2015 09:13:07]]></cmt>
    <trkseg>
      <trkpt lat="43.8861" lon="5.88921">
        <ele>329</ele>
        <time>2015-04-06T07:13:07Z</time>
      </trkpt>
      <trkpt lat="43.88609" lon="5.88925">
        <ele>329</ele>
        <time>2015-04-06T07:13:24Z</time>
      </trkpt>
      <trkpt lat="43.88612" lon="5.88927">
        <ele>329</ele>
        <time>2015-04-06T07:13:32Z</time>
      </trkpt>
      <trkpt lat="43.88614" lon="5.88924">
        <ele>329</ele>
        <time>2015-04-06T07:13:49Z</time>
      </trkpt>
      <trkpt lat="43.88617" lon="5.88926">
        <ele>329</ele>
        <time>2015-04-06T07:14:01Z</time>
      </trkpt>
      <trkpt lat="43.88621" lon="5.88927">
        <ele>329</ele>
        <time>2015-04-06T07:14:19Z</time>
      </trkpt>
      <trkpt lat="43.88623" lon="5.88922">
        <ele>329</ele>
        <time>2015-04-06T07:14:28Z</time>
      </trkpt>
      <trkpt lat="43.88625" lon="5.88921">
        <ele>329</ele>
        <time>2015-04-06T07:14:39Z</time>
      </trkpt>
      <trkpt lat="43.88627" lon="5.88918">
        <ele>328</ele>
        <time>2015-04-06T07:14:56Z</time>
      </trkpt>
      <trkpt lat="43.8863" lon="5.88919">
        <ele>328</ele>
        <time>2015-04-06T07:16:07Z</time>
      </trkpt>
      <trkpt lat="43.88629" lon="5.88916">
        <ele>329</ele>
        <time>2015-04-06T07:17:54Z</time>
      </trkpt>
      <trkpt lat="43.88629" lon="5.88908">
        <ele>329</ele>
        <time>2015-04-06T07:18:07Z</time>
      </trkpt>
      <trkpt lat="43.88629" lon="5.88905">
        <ele>330</ele>
        <time>2015-04-06T07:19:40Z</time>
      </trkpt>
      <trkpt lat="43.88627" lon="5.88897">
        <ele>330</ele>
        <time>2015-04-06T07:19:46Z</time>
      </trkpt>
      <trkpt lat="43.88624" lon="5.88892">
        <ele>330</ele>
        <time>2015-04-06T07:19:50Z</time>
      </trkpt>
      <trkpt lat="43.88619" lon="5.8889">
        <ele>330</ele>
        <time>2015-04-06T07:19:55Z</time>
      </trkpt>
      <trkpt lat="43.88609" lon="5.88883">
        <ele>330</ele>
        <time>2015-04-06T07:20:03Z</time>
      </trkpt>
      <trkpt lat="43.88605" lon="5.88879">
        <ele>330</ele>
        <time>2015-04-06T07:20:07Z</time>
      </trkpt>
      <trkpt lat="43.88596" lon="5.88869">
        <ele>331</ele>
        <time>2015-04-06T07:20:16Z</time>
      </trkpt>
      <trkpt lat="43.88591" lon="5.88865">
        <ele>332</ele>
        <time>2015-04-06T07:20:20Z</time>
      </trkpt>
      <trkpt lat="43.88572" lon="5.8886">
        <ele>330</ele>
        <time>2015-04-06T07:20:34Z</time>
      </trkpt>
      <trkpt lat="43.88551" lon="5.88861">
        <ele>331</ele>
        <time>2015-04-06T07:20:47Z</time>
      </trkpt>
      <trkpt lat="43.8852" lon="5.88867">
        <ele>330</ele>
        <time>2015-04-06T07:21:10Z</time>
      </trkpt>
      <trkpt lat="43.88473" lon="5.88868">
        <ele>329</ele>
        <time>2015-04-06T07:21:42Z</time>
      </trkpt>
      <trkpt lat="43.88433" lon="5.88866">
        <ele>330</ele>
        <time>2015-04-06T07:22:14Z</time>
      </trkpt>
      <trkpt lat="43.88408" lon="5.88859">
        <ele>330</ele>
        <time>2015-04-06T07:22:32Z</time>
      </trkpt>
      <trkpt lat="43.88369" lon="5.88848">
        <ele>328</ele>
        <time>2015-04-06T07:23:05Z</time>
      </trkpt>
      <trkpt lat="43.88353" lon="5.88843">
        <ele>328</ele>
        <time>2015-04-06T07:23:16Z</time>
      </trkpt>
      <trkpt lat="43.88346" lon="5.88835">
        <ele>328</ele>
        <time>2015-04-06T07:23:25Z</time>
      </trkpt>
      <trkpt lat="43.88307" lon="5.88798">
        <ele>329</ele>
        <time>2015-04-06T07:23:57Z</time>
      </trkpt>
      <trkpt lat="43.88264" lon="5.88765">
        <ele>331</ele>
        <time>2015-04-06T07:24:31Z</time>
      </trkpt>
      <trkpt lat="43.88258" lon="5.88763">
        <ele>331</ele>
        <time>2015-04-06T07:24:35Z</time>
      </trkpt>
      <trkpt lat="43.88248" lon="5.88753">
        <ele>330</ele>
        <time>2015-04-06T07:24:49Z</time>
      </trkpt>
      <trkpt lat="43.88229" lon="5.88739">
        <ele>331</ele>
        <time>2015-04-06T07:25:01Z</time>
      </trkpt>
      <trkpt lat="43.88222" lon="5.88726">
        <ele>331</ele>
        <time>2015-04-06T07:25:10Z</time>
      </trkpt>
      <trkpt lat="43.88214" lon="5.88718">
        <ele>331</ele>
        <time>2015-04-06T07:25:17Z</time>
      </trkpt>
      <trkpt lat="43.8821" lon="5.88715">
        <ele>331</ele>
        <time>2015-04-06T07:25:20Z</time>
      </trkpt>
      <trkpt lat="43.88196" lon="5.88696">
        <ele>333</ele>
        <time>2015-04-06T07:25:33Z</time>
      </trkpt>
      <trkpt lat="43.88156" lon="5.88664">
        <ele>333</ele>
        <time>2015-04-06T07:26:03Z</time>
      </trkpt>
      <trkpt lat="43.88136" lon="5.88651">
        <ele>331</ele>
        <time>2015-04-06T07:26:19Z</time>
      </trkpt>
      <trkpt lat="43.8813" lon="5.8865">
        <ele>331</ele>
        <time>2015-04-06T07:26:22Z</time>
      </trkpt>
      <trkpt lat="43.8808" lon="5.8866">
        <ele>329</ele>
        <time>2015-04-06T07:26:55Z</time>
      </trkpt>
      <trkpt lat="43.88044" lon="5.88659">
        <ele>328</ele>
        <time>2015-04-06T07:27:16Z</time>
      </trkpt>
      <trkpt lat="43.88027" lon="5.88643">
        <ele>327</ele>
        <time>2015-04-06T07:27:31Z</time>
      </trkpt>
      <trkpt lat="43.87987" lon="5.88608">
        <ele>328</ele>
        <time>2015-04-06T07:28:03Z</time>
      </trkpt>
      <trkpt lat="43.87949" lon="5.88571">
        <ele>328</ele>
        <time>2015-04-06T07:28:36Z</time>
      </trkpt>
      <trkpt lat="43.87901" lon="5.88542">
        <ele>328</ele>
        <time>2015-04-06T07:29:09Z</time>
      </trkpt>
      <trkpt lat="43.87877" lon="5.88539">
        <ele>328</ele>
        <time>2015-04-06T07:29:24Z</time>
      </trkpt>
      <trkpt lat="43.87857" lon="5.88534">
        <ele>327</ele>
        <time>2015-04-06T07:29:36Z</time>
      </trkpt>
      <trkpt lat="43.87822" lon="5.88525">
        <ele>327</ele>
        <time>2015-04-06T07:29:56Z</time>
      </trkpt>
      <trkpt lat="43.87814" lon="5.88514">
        <ele>327</ele>
        <time>2015-04-06T07:30:04Z</time>
      </trkpt>
      <trkpt lat="43.87795" lon="5.88511">
        <ele>327</ele>
        <time>2015-04-06T07:30:17Z</time>
      </trkpt>
      <trkpt lat="43.8779" lon="5.88509">
        <ele>327</ele>
        <time>2015-04-06T07:30:21Z</time>
      </trkpt>
      <trkpt lat="43.87787" lon="5.88504">
        <ele>326</ele>
        <time>2015-04-06T07:30:24Z</time>
      </trkpt>
      <trkpt lat="43.87769" lon="5.88455">
        <ele>327</ele>
        <time>2015-04-06T07:30:48Z</time>
      </trkpt>
      <trkpt lat="43.87771" lon="5.88425">
        <ele>326</ele>
        <time>2015-04-06T07:31:02Z</time>
      </trkpt>
      <trkpt lat="43.87768" lon="5.88418">
        <ele>326</ele>
        <time>2015-04-06T07:31:06Z</time>
      </trkpt>
      <trkpt lat="43.87765" lon="5.88376">
        <ele>325</ele>
        <time>2015-04-06T07:31:24Z</time>
      </trkpt>
      <trkpt lat="43.87759" lon="5.88374">
        <ele>325</ele>
        <time>2015-04-06T07:31:28Z</time>
      </trkpt>
      <trkpt lat="43.87755" lon="5.88375">
        <ele>325</ele>
        <time>2015-04-06T07:31:31Z</time>
      </trkpt>
      <trkpt lat="43.8775" lon="5.88371">
        <ele>326</ele>
        <time>2015-04-06T07:31:35Z</time>
      </trkpt>
      <trkpt lat="43.87749" lon="5.88364">
        <ele>326</ele>
        <time>2015-04-06T07:31:39Z</time>
      </trkpt>
      <trkpt lat="43.87772" lon="5.88297">
        <ele>326</ele>
        <time>2015-04-06T07:32:13Z</time>
      </trkpt>
      <trkpt lat="43.87802" lon="5.88279">
        <ele>327</ele>
        <time>2015-04-06T07:32:38Z</time>
      </trkpt>
      <trkpt lat="43.87849" lon="5.88281">
        <ele>326</ele>
        <time>2015-04-06T07:33:08Z</time>
      </trkpt>
      <trkpt lat="43.87859" lon="5.88284">
        <ele>326</ele>
        <time>2015-04-06T07:33:15Z</time>
      </trkpt>
      <trkpt lat="43.87875" lon="5.88293">
        <ele>326</ele>
        <time>2015-04-06T07:33:25Z</time>
      </trkpt>
      <trkpt lat="43.87923" lon="5.88332">
        <ele>325</ele>
        <time>2015-04-06T07:33:56Z</time>
      </trkpt>
      <trkpt lat="43.87971" lon="5.88357">
        <ele>323</ele>
        <time>2015-04-06T07:34:27Z</time>
      </trkpt>
      <trkpt lat="43.87978" lon="5.88359">
        <ele>323</ele>
        <time>2015-04-06T07:34:32Z</time>
      </trkpt>
      <trkpt lat="43.88019" lon="5.88382">
        <ele>323</ele>
        <time>2015-04-06T07:35:02Z</time>
      </trkpt>
      <trkpt lat="43.88066" lon="5.88404">
        <ele>323</ele>
        <time>2015-04-06T07:35:32Z</time>
      </trkpt>
      <trkpt lat="43.88071" lon="5.88406">
        <ele>322</ele>
        <time>2015-04-06T07:35:36Z</time>
      </trkpt>
      <trkpt lat="43.88076" lon="5.88409">
        <ele>322</ele>
        <time>2015-04-06T07:35:39Z</time>
      </trkpt>
      <trkpt lat="43.88106" lon="5.88419">
        <ele>324</ele>
        <time>2015-04-06T07:35:57Z</time>
      </trkpt>
      <trkpt lat="43.88154" lon="5.88433">
        <ele>322</ele>
        <time>2015-04-06T07:36:29Z</time>
      </trkpt>
      <trkpt lat="43.88206" lon="5.88453">
        <ele>323</ele>
        <time>2015-04-06T07:37:03Z</time>
      </trkpt>
      <trkpt lat="43.88218" lon="5.8847">
        <ele>324</ele>
        <time>2015-04-06T07:37:18Z</time>
      </trkpt>
      <trkpt lat="43.88218" lon="5.88477">
        <ele>324</ele>
        <time>2015-04-06T07:37:23Z</time>
      </trkpt>
      <trkpt lat="43.88218" lon="5.88484">
        <ele>324</ele>
        <time>2015-04-06T07:37:29Z</time>
      </trkpt>
      <trkpt lat="43.88222" lon="5.88485">
        <ele>324</ele>
        <time>2015-04-06T07:37:39Z</time>
      </trkpt>
      <trkpt lat="43.88232" lon="5.88488">
        <ele>324</ele>
        <time>2015-04-06T07:37:49Z</time>
      </trkpt>
      <trkpt lat="43.88237" lon="5.88489">
        <ele>325</ele>
        <time>2015-04-06T07:37:54Z</time>
      </trkpt>
      <trkpt lat="43.88243" lon="5.88489">
        <ele>325</ele>
        <time>2015-04-06T07:37:59Z</time>
      </trkpt>
      <trkpt lat="43.88247" lon="5.8849">
        <ele>325</ele>
        <time>2015-04-06T07:38:03Z</time>
      </trkpt>
      <trkpt lat="43.88252" lon="5.8849">
        <ele>325</ele>
        <time>2015-04-06T07:38:08Z</time>
      </trkpt>
      <trkpt lat="43.88257" lon="5.8849">
        <ele>324</ele>
        <time>2015-04-06T07:38:12Z</time>
      </trkpt>
      <trkpt lat="43.88266" lon="5.88491">
        <ele>324</ele>
        <time>2015-04-06T07:38:20Z</time>
      </trkpt>
      <trkpt lat="43.88275" lon="5.88496">
        <ele>324</ele>
        <time>2015-04-06T07:38:26Z</time>
      </trkpt>
      <trkpt lat="43.88281" lon="5.88495">
        <ele>324</ele>
        <time>2015-04-06T07:38:30Z</time>
      </trkpt>
      <trkpt lat="43.88285" lon="5.88491">
        <ele>324</ele>
        <time>2015-04-06T07:38:34Z</time>
      </trkpt>
      <trkpt lat="43.88286" lon="5.88497">
        <ele>324</ele>
        <time>2015-04-06T07:38:38Z</time>
      </trkpt>
      <trkpt lat="43.8829" lon="5.88501">
        <ele>324</ele>
        <time>2015-04-06T07:38:43Z</time>
      </trkpt>
      <trkpt lat="43.8833" lon="5.88519">
        <ele>323</ele>
        <time>2015-04-06T07:39:13Z</time>
      </trkpt>
      <trkpt lat="43.88354" lon="5.88528">
        <ele>323</ele>
        <time>2015-04-06T07:39:31Z</time>
      </trkpt>
      <trkpt lat="43.88404" lon="5.88555">
        <ele>322</ele>
        <time>2015-04-06T07:40:03Z</time>
      </trkpt>
      <trkpt lat="43.88408" lon="5.88558">
        <ele>322</ele>
        <time>2015-04-06T07:40:07Z</time>
      </trkpt>
      <trkpt lat="43.88413" lon="5.88561">
        <ele>322</ele>
        <time>2015-04-06T07:40:11Z</time>
      </trkpt>
      <trkpt lat="43.88427" lon="5.88568">
        <ele>321</ele>
        <time>2015-04-06T07:40:20Z</time>
      </trkpt>
      <trkpt lat="43.88463" lon="5.8857">
        <ele>322</ele>
        <time>2015-04-06T07:40:43Z</time>
      </trkpt>
      <trkpt lat="43.88468" lon="5.88569">
        <ele>322</ele>
        <time>2015-04-06T07:40:47Z</time>
      </trkpt>
      <trkpt lat="43.88482" lon="5.88571">
        <ele>323</ele>
        <time>2015-04-06T07:40:58Z</time>
      </trkpt>
      <trkpt lat="43.88488" lon="5.88571">
        <ele>324</ele>
        <time>2015-04-06T07:41:02Z</time>
      </trkpt>
      <trkpt lat="43.88506" lon="5.8858">
        <ele>324</ele>
        <time>2015-04-06T07:41:13Z</time>
      </trkpt>
      <trkpt lat="43.88551" lon="5.88593">
        <ele>322</ele>
        <time>2015-04-06T07:41:43Z</time>
      </trkpt>
      <trkpt lat="43.88557" lon="5.88594">
        <ele>322</ele>
        <time>2015-04-06T07:41:46Z</time>
      </trkpt>
      <trkpt lat="43.88581" lon="5.88602">
        <ele>320</ele>
        <time>2015-04-06T07:42:01Z</time>
      </trkpt>
      <trkpt lat="43.88591" lon="5.88605">
        <ele>321</ele>
        <time>2015-04-06T07:42:12Z</time>
      </trkpt>
      <trkpt lat="43.88597" lon="5.88607">
        <ele>322</ele>
        <time>2015-04-06T07:42:16Z</time>
      </trkpt>
      <trkpt lat="43.88615" lon="5.88595">
        <ele>323</ele>
        <time>2015-04-06T07:42:32Z</time>
      </trkpt>
      <trkpt lat="43.8862" lon="5.88594">
        <ele>323</ele>
        <time>2015-04-06T07:42:35Z</time>
      </trkpt>
      <trkpt lat="43.88654" lon="5.88615">
        <ele>324</ele>
        <time>2015-04-06T07:43:00Z</time>
      </trkpt>
      <trkpt lat="43.88658" lon="5.88619">
        <ele>324</ele>
        <time>2015-04-06T07:43:03Z</time>
      </trkpt>
      <trkpt lat="43.88682" lon="5.88635">
        <ele>323</ele>
        <time>2015-04-06T07:43:19Z</time>
      </trkpt>
      <trkpt lat="43.88686" lon="5.88637">
        <ele>324</ele>
        <time>2015-04-06T07:43:25Z</time>
      </trkpt>
      <trkpt lat="43.88696" lon="5.88647">
        <ele>325</ele>
        <time>2015-04-06T07:43:32Z</time>
      </trkpt>
      <trkpt lat="43.88703" lon="5.88655">
        <ele>325</ele>
        <time>2015-04-06T07:43:39Z</time>
      </trkpt>
      <trkpt lat="43.88716" lon="5.88672">
        <ele>323</ele>
        <time>2015-04-06T07:43:50Z</time>
      </trkpt>
      <trkpt lat="43.88729" lon="5.88685">
        <ele>324</ele>
        <time>2015-04-06T07:43:59Z</time>
      </trkpt>
      <trkpt lat="43.88737" lon="5.88698">
        <ele>324</ele>
        <time>2015-04-06T07:44:06Z</time>
      </trkpt>
      <trkpt lat="43.88745" lon="5.88714">
        <ele>324</ele>
        <time>2015-04-06T07:44:13Z</time>
      </trkpt>
      <trkpt lat="43.88753" lon="5.88725">
        <ele>326</ele>
        <time>2015-04-06T07:44:19Z</time>
      </trkpt>
      <trkpt lat="43.88756" lon="5.8873">
        <ele>326</ele>
        <time>2015-04-06T07:44:23Z</time>
      </trkpt>
      <trkpt lat="43.88762" lon="5.88742">
        <ele>324</ele>
        <time>2015-04-06T07:44:35Z</time>
      </trkpt>
      <trkpt lat="43.88765" lon="5.88747">
        <ele>324</ele>
        <time>2015-04-06T07:44:38Z</time>
      </trkpt>
      <trkpt lat="43.88772" lon="5.88755">
        <ele>324</ele>
        <time>2015-04-06T07:44:44Z</time>
      </trkpt>
      <trkpt lat="43.88787" lon="5.88773">
        <ele>325</ele>
        <time>2015-04-06T07:44:57Z</time>
      </trkpt>
      <trkpt lat="43.88794" lon="5.88782">
        <ele>325</ele>
        <time>2015-04-06T07:45:03Z</time>
      </trkpt>
      <trkpt lat="43.88798" lon="5.88787">
        <ele>326</ele>
        <time>2015-04-06T07:45:07Z</time>
      </trkpt>
      <trkpt lat="43.88802" lon="5.88789">
        <ele>326</ele>
        <time>2015-04-06T07:45:14Z</time>
      </trkpt>
      <trkpt lat="43.88798" lon="5.88794">
        <ele>327</ele>
        <time>2015-04-06T07:45:19Z</time>
      </trkpt>
      <trkpt lat="43.88799" lon="5.888">
        <ele>328</ele>
        <time>2015-04-06T07:45:24Z</time>
      </trkpt>
      <trkpt lat="43.88797" lon="5.88806">
        <ele>328</ele>
        <time>2015-04-06T07:45:31Z</time>
      </trkpt>
      <trkpt lat="43.88793" lon="5.88811">
        <ele>327</ele>
        <time>2015-04-06T07:45:38Z</time>
      </trkpt>
      <trkpt lat="43.88791" lon="5.88808">
        <ele>327</ele>
        <time>2015-04-06T07:47:35Z</time>
      </trkpt>
      <trkpt lat="43.88789" lon="5.88815">
        <ele>327</ele>
        <time>2015-04-06T07:48:25Z</time>
      </trkpt>
      <trkpt lat="43.88786" lon="5.88828">
        <ele>329</ele>
        <time>2015-04-06T07:48:31Z</time>
      </trkpt>
      <trkpt lat="43.88785" lon="5.88841">
        <ele>330</ele>
        <time>2015-04-06T07:48:39Z</time>
      </trkpt>
      <trkpt lat="43.88787" lon="5.88849">
        <ele>330</ele>
        <time>2015-04-06T07:48:43Z</time>
      </trkpt>
      <trkpt lat="43.88794" lon="5.88862">
        <ele>329</ele>
        <time>2015-04-06T07:48:51Z</time>
      </trkpt>
      <trkpt lat="43.88833" lon="5.88882">
        <ele>328</ele>
        <time>2015-04-06T07:49:20Z</time>
      </trkpt>
      <trkpt lat="43.88838" lon="5.88885">
        <ele>328</ele>
        <time>2015-04-06T07:49:24Z</time>
      </trkpt>
      <trkpt lat="43.88884" lon="5.88903">
        <ele>329</ele>
        <time>2015-04-06T07:49:56Z</time>
      </trkpt>
      <trkpt lat="43.88894" lon="5.8891">
        <ele>329</ele>
        <time>2015-04-06T07:50:04Z</time>
      </trkpt>
      <trkpt lat="43.88907" lon="5.88919">
        <ele>330</ele>
        <time>2015-04-06T07:50:13Z</time>
      </trkpt>
      <trkpt lat="43.88921" lon="5.88927">
        <ele>330</ele>
        <time>2015-04-06T07:50:23Z</time>
      </trkpt>
      <trkpt lat="43.88959" lon="5.88943">
        <ele>328</ele>
        <time>2015-04-06T07:50:50Z</time>
      </trkpt>
      <trkpt lat="43.89011" lon="5.8897">
        <ele>330</ele>
        <time>2015-04-06T07:51:23Z</time>
      </trkpt>
      <trkpt lat="43.89016" lon="5.88974">
        <ele>330</ele>
        <time>2015-04-06T07:51:27Z</time>
      </trkpt>
      <trkpt lat="43.8903" lon="5.88983">
        <ele>330</ele>
        <time>2015-04-06T07:51:38Z</time>
      </trkpt>
      <trkpt lat="43.89074" lon="5.89002">
        <ele>330</ele>
        <time>2015-04-06T07:52:10Z</time>
      </trkpt>
      <trkpt lat="43.89116" lon="5.89027">
        <ele>331</ele>
        <time>2015-04-06T07:52:41Z</time>
      </trkpt>
      <trkpt lat="43.89162" lon="5.89052">
        <ele>329</ele>
        <time>2015-04-06T07:53:13Z</time>
      </trkpt>
      <trkpt lat="43.89212" lon="5.89076">
        <ele>329</ele>
        <time>2015-04-06T07:53:45Z</time>
      </trkpt>
      <trkpt lat="43.89243" lon="5.89088">
        <ele>329</ele>
        <time>2015-04-06T07:54:04Z</time>
      </trkpt>
      <trkpt lat="43.89253" lon="5.89095">
        <ele>330</ele>
        <time>2015-04-06T07:54:13Z</time>
      </trkpt>
      <trkpt lat="43.89257" lon="5.89097">
        <ele>330</ele>
        <time>2015-04-06T07:54:17Z</time>
      </trkpt>
      <trkpt lat="43.89308" lon="5.89123">
        <ele>328</ele>
        <time>2015-04-06T07:54:49Z</time>
      </trkpt>
      <trkpt lat="43.89358" lon="5.89149">
        <ele>327</ele>
        <time>2015-04-06T07:55:22Z</time>
      </trkpt>
      <trkpt lat="43.89406" lon="5.8918">
        <ele>327</ele>
        <time>2015-04-06T07:55:53Z</time>
      </trkpt>
      <trkpt lat="43.89414" lon="5.89185">
        <ele>326</ele>
        <time>2015-04-06T07:55:59Z</time>
      </trkpt>
      <trkpt lat="43.8943" lon="5.89192">
        <ele>327</ele>
        <time>2015-04-06T07:56:09Z</time>
      </trkpt>
      <trkpt lat="43.89446" lon="5.892">
        <ele>326</ele>
        <time>2015-04-06T07:56:20Z</time>
      </trkpt>
      <trkpt lat="43.89451" lon="5.89202">
        <ele>326</ele>
        <time>2015-04-06T07:56:23Z</time>
      </trkpt>
      <trkpt lat="43.89491" lon="5.89225">
        <ele>328</ele>
        <time>2015-04-06T07:56:51Z</time>
      </trkpt>
      <trkpt lat="43.8951" lon="5.89235">
        <ele>326</ele>
        <time>2015-04-06T07:57:02Z</time>
      </trkpt>
      <trkpt lat="43.89531" lon="5.89251">
        <ele>327</ele>
        <time>2015-04-06T07:57:16Z</time>
      </trkpt>
      <trkpt lat="43.89536" lon="5.89253">
        <ele>328</ele>
        <time>2015-04-06T07:57:19Z</time>
      </trkpt>
      <trkpt lat="43.89585" lon="5.89256">
        <ele>328</ele>
        <time>2015-04-06T07:57:50Z</time>
      </trkpt>
      <trkpt lat="43.89634" lon="5.89283">
        <ele>330</ele>
        <time>2015-04-06T07:58:21Z</time>
      </trkpt>
      <trkpt lat="43.89673" lon="5.89328">
        <ele>328</ele>
        <time>2015-04-06T07:58:53Z</time>
      </trkpt>
      <trkpt lat="43.89687" lon="5.8934">
        <ele>328</ele>
        <time>2015-04-06T07:59:01Z</time>
      </trkpt>
      <trkpt lat="43.897" lon="5.89351">
        <ele>329</ele>
        <time>2015-04-06T07:59:12Z</time>
      </trkpt>
      <trkpt lat="43.89719" lon="5.8936">
        <ele>330</ele>
        <time>2015-04-06T07:59:25Z</time>
      </trkpt>
      <trkpt lat="43.89746" lon="5.89374">
        <ele>327</ele>
        <time>2015-04-06T07:59:43Z</time>
      </trkpt>
      <trkpt lat="43.89773" lon="5.8939">
        <ele>328</ele>
        <time>2015-04-06T08:00:00Z</time>
      </trkpt>
      <trkpt lat="43.89776" lon="5.89392">
        <ele>328</ele>
        <time>2015-04-06T08:00:02Z</time>
      </trkpt>
      <trkpt lat="43.89823" lon="5.89414">
        <ele>328</ele>
        <time>2015-04-06T08:00:33Z</time>
      </trkpt>
      <trkpt lat="43.8986" lon="5.89426">
        <ele>328</ele>
        <time>2015-04-06T08:00:57Z</time>
      </trkpt>
      <trkpt lat="43.8989" lon="5.89437">
        <ele>329</ele>
        <time>2015-04-06T08:01:17Z</time>
      </trkpt>
      <trkpt lat="43.89904" lon="5.89445">
        <ele>328</ele>
        <time>2015-04-06T08:01:26Z</time>
      </trkpt>
      <trkpt lat="43.89926" lon="5.89449">
        <ele>329</ele>
        <time>2015-04-06T08:01:40Z</time>
      </trkpt>
      <trkpt lat="43.89929" lon="5.8945">
        <ele>329</ele>
        <time>2015-04-06T08:01:42Z</time>
      </trkpt>
      <trkpt lat="43.89966" lon="5.8946">
        <ele>329</ele>
        <time>2015-04-06T08:02:03Z</time>
      </trkpt>
      <trkpt lat="43.89971" lon="5.8947">
        <ele>329</ele>
        <time>2015-04-06T08:02:08Z</time>
      </trkpt>
      <trkpt lat="43.8997" lon="5.89465">
        <ele>330</ele>
        <time>2015-04-06T08:03:22Z</time>
      </trkpt>
      <trkpt lat="43.89965" lon="5.8947">
        <ele>331</ele>
        <time>2015-04-06T08:03:34Z</time>
      </trkpt>
      <trkpt lat="43.89967" lon="5.89475">
        <ele>331</ele>
        <time>2015-04-06T08:04:45Z</time>
      </trkpt>
      <trkpt lat="43.89969" lon="5.89481">
        <ele>331</ele>
        <time>2015-04-06T08:04:58Z</time>
      </trkpt>
      <trkpt lat="43.89972" lon="5.89486">
        <ele>332</ele>
        <time>2015-04-06T08:05:10Z</time>
      </trkpt>
      <trkpt lat="43.89973" lon="5.89486">
        <ele>331</ele>
        <time>2015-04-06T08:05:40Z</time>
      </trkpt>
      <trkpt lat="43.8997" lon="5.89484">
        <ele>334</ele>
        <time>2015-04-06T08:06:15Z</time>
      </trkpt>
      <trkpt lat="43.89971" lon="5.89477">
        <ele>335</ele>
        <time>2015-04-06T08:06:40Z</time>
      </trkpt>
      <trkpt lat="43.89969" lon="5.89469">
        <ele>335</ele>
        <time>2015-04-06T08:06:52Z</time>
      </trkpt>
      <trkpt lat="43.89969" lon="5.89473">
        <ele>336</ele>
        <time>2015-04-06T08:08:39Z</time>
      </trkpt>
      <trkpt lat="43.8997" lon="5.89478">
        <ele>337</ele>
        <time>2015-04-06T08:09:06Z</time>
      </trkpt>
      <trkpt lat="43.89969" lon="5.89491">
        <ele>337</ele>
        <time>2015-04-06T08:09:12Z</time>
      </trkpt>
      <trkpt lat="43.89968" lon="5.895">
        <ele>338</ele>
        <time>2015-04-06T08:09:16Z</time>
      </trkpt>
      <trkpt lat="43.89967" lon="5.89507">
        <ele>337</ele>
        <time>2015-04-06T08:09:19Z</time>
      </trkpt>
      <trkpt lat="43.8996" lon="5.89538">
        <ele>335</ele>
        <time>2015-04-06T08:09:35Z</time>
      </trkpt>
      <trkpt lat="43.89959" lon="5.89607">
        <ele>335</ele>
        <time>2015-04-06T08:10:05Z</time>
      </trkpt>
      <trkpt lat="43.89958" lon="5.89621">
        <ele>335</ele>
        <time>2015-04-06T08:10:11Z</time>
      </trkpt>
      <trkpt lat="43.89958" lon="5.89628">
        <ele>335</ele>
        <time>2015-04-06T08:10:14Z</time>
      </trkpt>
      <trkpt lat="43.89954" lon="5.89663">
        <ele>333</ele>
        <time>2015-04-06T08:10:28Z</time>
      </trkpt>
      <trkpt lat="43.89949" lon="5.89731">
        <ele>335</ele>
        <time>2015-04-06T08:10:59Z</time>
      </trkpt>
      <trkpt lat="43.89943" lon="5.89777">
        <ele>335</ele>
        <time>2015-04-06T08:11:19Z</time>
      </trkpt>
      <trkpt lat="43.8994" lon="5.89783">
        <ele>335</ele>
        <time>2015-04-06T08:11:22Z</time>
      </trkpt>
      <trkpt lat="43.89936" lon="5.89786">
        <ele>336</ele>
        <time>2015-04-06T08:11:25Z</time>
      </trkpt>
      <trkpt lat="43.8993" lon="5.89788">
        <ele>336</ele>
        <time>2015-04-06T08:11:29Z</time>
      </trkpt>
      <trkpt lat="43.8992" lon="5.89784">
        <ele>337</ele>
        <time>2015-04-06T08:11:35Z</time>
      </trkpt>
      <trkpt lat="43.89908" lon="5.89768">
        <ele>338</ele>
        <time>2015-04-06T08:11:47Z</time>
      </trkpt>
      <trkpt lat="43.89892" lon="5.89755">
        <ele>338</ele>
        <time>2015-04-06T08:11:58Z</time>
      </trkpt>
      <trkpt lat="43.89887" lon="5.89751">
        <ele>338</ele>
        <time>2015-04-06T08:12:02Z</time>
      </trkpt>
      <trkpt lat="43.89874" lon="5.8974">
        <ele>337</ele>
        <time>2015-04-06T08:12:11Z</time>
      </trkpt>
      <trkpt lat="43.89844" lon="5.89722">
        <ele>338</ele>
        <time>2015-04-06T08:12:31Z</time>
      </trkpt>
      <trkpt lat="43.89806" lon="5.89709">
        <ele>339</ele>
        <time>2015-04-06T08:12:54Z</time>
      </trkpt>
      <trkpt lat="43.89802" lon="5.89709">
        <ele>338</ele>
        <time>2015-04-06T08:12:57Z</time>
      </trkpt>
      <trkpt lat="43.89788" lon="5.89704">
        <ele>338</ele>
        <time>2015-04-06T08:13:07Z</time>
      </trkpt>
      <trkpt lat="43.89771" lon="5.89701">
        <ele>336</ele>
        <time>2015-04-06T08:13:16Z</time>
      </trkpt>
      <trkpt lat="43.89722" lon="5.8968">
        <ele>336</ele>
        <time>2015-04-06T08:13:47Z</time>
      </trkpt>
      <trkpt lat="43.89712" lon="5.89676">
        <ele>336</ele>
        <time>2015-04-06T08:13:53Z</time>
      </trkpt>
      <trkpt lat="43.89696" lon="5.89672">
        <ele>337</ele>
        <time>2015-04-06T08:14:03Z</time>
      </trkpt>
      <trkpt lat="43.89681" lon="5.89668">
        <ele>337</ele>
        <time>2015-04-06T08:14:12Z</time>
      </trkpt>
      <trkpt lat="43.89671" lon="5.89665">
        <ele>336</ele>
        <time>2015-04-06T08:14:18Z</time>
      </trkpt>
      <trkpt lat="43.89666" lon="5.89665">
        <ele>336</ele>
        <time>2015-04-06T08:14:22Z</time>
      </trkpt>
      <trkpt lat="43.89623" lon="5.89676">
        <ele>339</ele>
        <time>2015-04-06T08:14:52Z</time>
      </trkpt>
      <trkpt lat="43.89597" lon="5.89676">
        <ele>339</ele>
        <time>2015-04-06T08:15:07Z</time>
      </trkpt>
      <trkpt lat="43.89579" lon="5.89676">
        <ele>338</ele>
        <time>2015-04-06T08:15:17Z</time>
      </trkpt>
      <trkpt lat="43.89578" lon="5.89669">
        <ele>338</ele>
        <time>2015-04-06T08:15:24Z</time>
      </trkpt>
      <trkpt lat="43.89578" lon="5.89643">
        <ele>337</ele>
        <time>2015-04-06T08:15:37Z</time>
      </trkpt>
      <trkpt lat="43.89586" lon="5.89566">
        <ele>334</ele>
        <time>2015-04-06T08:16:09Z</time>
      </trkpt>
      <trkpt lat="43.89593" lon="5.89501">
        <ele>333</ele>
        <time>2015-04-06T08:16:39Z</time>
      </trkpt>
      <trkpt lat="43.89602" lon="5.89435">
        <ele>332</ele>
        <time>2015-04-06T08:17:10Z</time>
      </trkpt>
      <trkpt lat="43.89604" lon="5.89414">
        <ele>331</ele>
        <time>2015-04-06T08:17:18Z</time>
      </trkpt>
      <trkpt lat="43.896" lon="5.89403">
        <ele>331</ele>
        <time>2015-04-06T08:17:22Z</time>
      </trkpt>
      <trkpt lat="43.89596" lon="5.89401">
        <ele>331</ele>
        <time>2015-04-06T08:17:24Z</time>
      </trkpt>
      <trkpt lat="43.8959" lon="5.89402">
        <ele>331</ele>
        <time>2015-04-06T08:17:27Z</time>
      </trkpt>
      <trkpt lat="43.89535" lon="5.89396">
        <ele>333</ele>
        <time>2015-04-06T08:17:59Z</time>
      </trkpt>
      <trkpt lat="43.89485" lon="5.89382">
        <ele>334</ele>
        <time>2015-04-06T08:18:31Z</time>
      </trkpt>
      <trkpt lat="43.8946" lon="5.89379">
        <ele>333</ele>
        <time>2015-04-06T08:18:47Z</time>
      </trkpt>
      <trkpt lat="43.89435" lon="5.89374">
        <ele>332</ele>
        <time>2015-04-06T08:19:02Z</time>
      </trkpt>
      <trkpt lat="43.89422" lon="5.89371">
        <ele>333</ele>
        <time>2015-04-06T08:19:10Z</time>
      </trkpt>
      <trkpt lat="43.89413" lon="5.89363">
        <ele>333</ele>
        <time>2015-04-06T08:19:17Z</time>
      </trkpt>
      <trkpt lat="43.89406" lon="5.89361">
        <ele>334</ele>
        <time>2015-04-06T08:19:22Z</time>
      </trkpt>
      <trkpt lat="43.89395" lon="5.89358">
        <ele>334</ele>
        <time>2015-04-06T08:19:28Z</time>
      </trkpt>
      <trkpt lat="43.8939" lon="5.89356">
        <ele>334</ele>
        <time>2015-04-06T08:19:32Z</time>
      </trkpt>
      <trkpt lat="43.89386" lon="5.89355">
        <ele>333</ele>
        <time>2015-04-06T08:19:36Z</time>
      </trkpt>
      <trkpt lat="43.89356" lon="5.89352">
        <ele>331</ele>
        <time>2015-04-06T08:19:51Z</time>
      </trkpt>
      <trkpt lat="43.89349" lon="5.8935">
        <ele>331</ele>
        <time>2015-04-06T08:19:54Z</time>
      </trkpt>
      <trkpt lat="43.8929" lon="5.89334">
        <ele>332</ele>
        <time>2015-04-06T08:20:26Z</time>
      </trkpt>
      <trkpt lat="43.8928" lon="5.89332">
        <ele>332</ele>
        <time>2015-04-06T08:20:32Z</time>
      </trkpt>
      <trkpt lat="43.89278" lon="5.89331">
        <ele>332</ele>
        <time>2015-04-06T08:20:34Z</time>
      </trkpt>
      <trkpt lat="43.89226" lon="5.8932">
        <ele>332</ele>
        <time>2015-04-06T08:21:06Z</time>
      </trkpt>
      <trkpt lat="43.89213" lon="5.89315">
        <ele>332</ele>
        <time>2015-04-06T08:21:14Z</time>
      </trkpt>
      <trkpt lat="43.89209" lon="5.89316">
        <ele>332</ele>
        <time>2015-04-06T08:21:17Z</time>
      </trkpt>
      <trkpt lat="43.89204" lon="5.89315">
        <ele>332</ele>
        <time>2015-04-06T08:21:20Z</time>
      </trkpt>
      <trkpt lat="43.89184" lon="5.89314">
        <ele>333</ele>
        <time>2015-04-06T08:21:31Z</time>
      </trkpt>
      <trkpt lat="43.89179" lon="5.89311">
        <ele>333</ele>
        <time>2015-04-06T08:21:34Z</time>
      </trkpt>
      <trkpt lat="43.8916" lon="5.89307">
        <ele>331</ele>
        <time>2015-04-06T08:21:45Z</time>
      </trkpt>
      <trkpt lat="43.89142" lon="5.89307">
        <ele>331</ele>
        <time>2015-04-06T08:21:56Z</time>
      </trkpt>
      <trkpt lat="43.89137" lon="5.89306">
        <ele>332</ele>
        <time>2015-04-06T08:22:00Z</time>
      </trkpt>
      <trkpt lat="43.89081" lon="5.89297">
        <ele>334</ele>
        <time>2015-04-06T08:22:31Z</time>
      </trkpt>
      <trkpt lat="43.89077" lon="5.89294">
        <ele>334</ele>
        <time>2015-04-06T08:22:35Z</time>
      </trkpt>
      <trkpt lat="43.89022" lon="5.89285">
        <ele>334</ele>
        <time>2015-04-06T08:23:07Z</time>
      </trkpt>
      <trkpt lat="43.88974" lon="5.89276">
        <ele>334</ele>
        <time>2015-04-06T08:23:37Z</time>
      </trkpt>
      <trkpt lat="43.88949" lon="5.8927">
        <ele>333</ele>
        <time>2015-04-06T08:23:52Z</time>
      </trkpt>
      <trkpt lat="43.88938" lon="5.89268">
        <ele>334</ele>
        <time>2015-04-06T08:23:59Z</time>
      </trkpt>
      <trkpt lat="43.88927" lon="5.89265">
        <ele>334</ele>
        <time>2015-04-06T08:24:07Z</time>
      </trkpt>
      <trkpt lat="43.88922" lon="5.89264">
        <ele>333</ele>
        <time>2015-04-06T08:24:10Z</time>
      </trkpt>
      <trkpt lat="43.88865" lon="5.89252">
        <ele>333</ele>
        <time>2015-04-06T08:24:43Z</time>
      </trkpt>
      <trkpt lat="43.88813" lon="5.89243">
        <ele>331</ele>
        <time>2015-04-06T08:25:15Z</time>
      </trkpt>
      <trkpt lat="43.88764" lon="5.89235">
        <ele>331</ele>
        <time>2015-04-06T08:25:47Z</time>
      </trkpt>
      <trkpt lat="43.88717" lon="5.89222">
        <ele>330</ele>
        <time>2015-04-06T08:26:15Z</time>
      </trkpt>
      <trkpt lat="43.88711" lon="5.89211">
        <ele>329</ele>
        <time>2015-04-06T08:26:22Z</time>
      </trkpt>
      <trkpt lat="43.88707" lon="5.89207">
        <ele>330</ele>
        <time>2015-04-06T08:26:25Z</time>
      </trkpt>
      <trkpt lat="43.88697" lon="5.89206">
        <ele>330</ele>
        <time>2015-04-06T08:26:31Z</time>
      </trkpt>
      <trkpt lat="43.88693" lon="5.89203">
        <ele>330</ele>
        <time>2015-04-06T08:26:34Z</time>
      </trkpt>
      <trkpt lat="43.88689" lon="5.892">
        <ele>330</ele>
        <time>2015-04-06T08:26:37Z</time>
      </trkpt>
      <trkpt lat="43.88681" lon="5.89188">
        <ele>331</ele>
        <time>2015-04-06T08:26:44Z</time>
      </trkpt>
      <trkpt lat="43.88662" lon="5.89165">
        <ele>330</ele>
        <time>2015-04-06T08:26:59Z</time>
      </trkpt>
      <trkpt lat="43.8866" lon="5.89156">
        <ele>330</ele>
        <time>2015-04-06T08:27:03Z</time>
      </trkpt>
      <trkpt lat="43.88655" lon="5.89152">
        <ele>330</ele>
        <time>2015-04-06T08:27:08Z</time>
      </trkpt>
      <trkpt lat="43.88646" lon="5.89143">
        <ele>330</ele>
        <time>2015-04-06T08:27:15Z</time>
      </trkpt>
      <trkpt lat="43.88642" lon="5.89139">
        <ele>330</ele>
        <time>2015-04-06T08:27:19Z</time>
      </trkpt>
      <trkpt lat="43.8864" lon="5.89133">
        <ele>330</ele>
        <time>2015-04-06T08:27:23Z</time>
      </trkpt>
      <trkpt lat="43.88641" lon="5.89119">
        <ele>330</ele>
        <time>2015-04-06T08:27:30Z</time>
      </trkpt>
      <trkpt lat="43.88641" lon="5.89114">
        <ele>329</ele>
        <time>2015-04-06T08:27:32Z</time>
      </trkpt>
      <trkpt lat="43.88644" lon="5.89076">
        <ele>329</ele>
        <time>2015-04-06T08:27:50Z</time>
      </trkpt>
      <trkpt lat="43.88642" lon="5.8905">
        <ele>330</ele>
        <time>2015-04-06T08:28:11Z</time>
      </trkpt>
      <trkpt lat="43.88643" lon="5.89043">
        <ele>330</ele>
        <time>2015-04-06T08:28:20Z</time>
      </trkpt>
      <trkpt lat="43.88641" lon="5.89037">
        <ele>330</ele>
        <time>2015-04-06T08:28:24Z</time>
      </trkpt>
      <trkpt lat="43.8864" lon="5.89031">
        <ele>331</ele>
        <time>2015-04-06T08:28:31Z</time>
      </trkpt>
      <trkpt lat="43.88638" lon="5.89023">
        <ele>331</ele>
        <time>2015-04-06T08:28:38Z</time>
      </trkpt>
      <trkpt lat="43.88636" lon="5.89016">
        <ele>330</ele>
        <time>2015-04-06T08:28:41Z</time>
      </trkpt>
      <trkpt lat="43.88638" lon="5.8901">
        <ele>331</ele>
        <time>2015-04-06T08:28:46Z</time>
      </trkpt>
      <trkpt lat="43.88636" lon="5.89004">
        <ele>332</ele>
        <time>2015-04-06T08:28:53Z</time>
      </trkpt>
      <trkpt lat="43.88635" lon="5.88997">
        <ele>332</ele>
        <time>2015-04-06T08:28:58Z</time>
      </trkpt>
      <trkpt lat="43.88634" lon="5.8899">
        <ele>332</ele>
        <time>2015-04-06T08:29:04Z</time>
      </trkpt>
      <trkpt lat="43.88629" lon="5.88974">
        <ele>331</ele>
        <time>2015-04-06T08:29:20Z</time>
      </trkpt>
      <trkpt lat="43.8863" lon="5.88967">
        <ele>330</ele>
        <time>2015-04-06T08:29:24Z</time>
      </trkpt>
      <trkpt lat="43.88631" lon="5.88962">
        <ele>330</ele>
        <time>2015-04-06T08:29:34Z</time>
      </trkpt>
      <trkpt lat="43.88635" lon="5.8896">
        <ele>331</ele>
        <time>2015-04-06T08:30:49Z</time>
      </trkpt>
      <trkpt lat="43.88637" lon="5.88954">
        <ele>331</ele>
        <time>2015-04-06T08:31:06Z</time>
      </trkpt>
      <trkpt lat="43.88641" lon="5.88951">
        <ele>331</ele>
        <time>2015-04-06T08:31:23Z</time>
      </trkpt>
      <trkpt lat="43.88649" lon="5.88942">
        <ele>332</ele>
        <time>2015-04-06T08:31:35Z</time>
      </trkpt>
      <trkpt lat="43.88633" lon="5.88872">
        <ele>330</ele>
        <time>2015-04-06T08:35:15Z</time>
      </trkpt>
      <trkpt lat="43.88601" lon="5.88862">
        <ele>329</ele>
        <time>2015-04-06T08:35:47Z</time>
      </trkpt>
      <trkpt lat="43.8856" lon="5.88858">
        <ele>330</ele>
        <time>2015-04-06T08:36:20Z</time>
      </trkpt>
      <trkpt lat="43.88552" lon="5.88859">
        <ele>330</ele>
        <time>2015-04-06T08:36:27Z</time>
      </trkpt>
      <trkpt lat="43.88502" lon="5.88865">
        <ele>330</ele>
        <time>2015-04-06T08:36:58Z</time>
      </trkpt>
      <trkpt lat="43.88498" lon="5.88865">
        <ele>330</ele>
        <time>2015-04-06T08:37:01Z</time>
      </trkpt>
      <trkpt lat="43.88456" lon="5.88864">
        <ele>331</ele>
        <time>2015-04-06T08:37:34Z</time>
      </trkpt>
      <trkpt lat="43.88426" lon="5.88862">
        <ele>332</ele>
        <time>2015-04-06T08:37:54Z</time>
      </trkpt>
      <trkpt lat="43.88421" lon="5.8886">
        <ele>333</ele>
        <time>2015-04-06T08:37:58Z</time>
      </trkpt>
      <trkpt lat="43.88392" lon="5.88851">
        <ele>334</ele>
        <time>2015-04-06T08:38:16Z</time>
      </trkpt>
      <trkpt lat="43.88376" lon="5.88848">
        <ele>333</ele>
        <time>2015-04-06T08:38:26Z</time>
      </trkpt>
      <trkpt lat="43.88371" lon="5.88848">
        <ele>333</ele>
        <time>2015-04-06T08:38:30Z</time>
      </trkpt>
      <trkpt lat="43.88367" lon="5.88846">
        <ele>333</ele>
        <time>2015-04-06T08:38:35Z</time>
      </trkpt>
      <trkpt lat="43.88352" lon="5.8884">
        <ele>333</ele>
        <time>2015-04-06T08:38:47Z</time>
      </trkpt>
      <trkpt lat="43.88325" lon="5.88821">
        <ele>332</ele>
        <time>2015-04-06T08:39:04Z</time>
      </trkpt>
      <trkpt lat="43.88322" lon="5.88809">
        <ele>332</ele>
        <time>2015-04-06T08:39:09Z</time>
      </trkpt>
      <trkpt lat="43.88317" lon="5.88805">
        <ele>332</ele>
        <time>2015-04-06T08:39:12Z</time>
      </trkpt>
      <trkpt lat="43.88306" lon="5.88799">
        <ele>333</ele>
        <time>2015-04-06T08:39:18Z</time>
      </trkpt>
      <trkpt lat="43.88302" lon="5.88793">
        <ele>333</ele>
        <time>2015-04-06T08:39:21Z</time>
      </trkpt>
      <trkpt lat="43.88283" lon="5.88774">
        <ele>333</ele>
        <time>2015-04-06T08:39:34Z</time>
      </trkpt>
      <trkpt lat="43.88278" lon="5.88768">
        <ele>332</ele>
        <time>2015-04-06T08:39:38Z</time>
      </trkpt>
      <trkpt lat="43.88274" lon="5.88764">
        <ele>332</ele>
        <time>2015-04-06T08:39:41Z</time>
      </trkpt>
      <trkpt lat="43.88269" lon="5.8876">
        <ele>332</ele>
        <time>2015-04-06T08:39:46Z</time>
      </trkpt>
      <trkpt lat="43.88256" lon="5.88752">
        <ele>330</ele>
        <time>2015-04-06T08:39:57Z</time>
      </trkpt>
      <trkpt lat="43.88245" lon="5.88746">
        <ele>330</ele>
        <time>2015-04-06T08:40:07Z</time>
      </trkpt>
      <trkpt lat="43.88238" lon="5.88737">
        <ele>330</ele>
        <time>2015-04-06T08:40:14Z</time>
      </trkpt>
      <trkpt lat="43.88223" lon="5.88726">
        <ele>330</ele>
        <time>2015-04-06T08:40:22Z</time>
      </trkpt>
      <trkpt lat="43.8822" lon="5.88722">
        <ele>330</ele>
        <time>2015-04-06T08:40:26Z</time>
      </trkpt>
      <trkpt lat="43.8821" lon="5.88715">
        <ele>330</ele>
        <time>2015-04-06T08:40:34Z</time>
      </trkpt>
      <trkpt lat="43.88206" lon="5.88712">
        <ele>331</ele>
        <time>2015-04-06T08:40:37Z</time>
      </trkpt>
      <trkpt lat="43.88202" lon="5.88706">
        <ele>331</ele>
        <time>2015-04-06T08:40:40Z</time>
      </trkpt>
      <trkpt lat="43.88179" lon="5.88678">
        <ele>332</ele>
        <time>2015-04-06T08:40:57Z</time>
      </trkpt>
      <trkpt lat="43.88174" lon="5.88674">
        <ele>332</ele>
        <time>2015-04-06T08:41:01Z</time>
      </trkpt>
      <trkpt lat="43.88157" lon="5.88659">
        <ele>333</ele>
        <time>2015-04-06T08:41:13Z</time>
      </trkpt>
      <trkpt lat="43.88147" lon="5.88654">
        <ele>333</ele>
        <time>2015-04-06T08:41:20Z</time>
      </trkpt>
      <trkpt lat="43.88142" lon="5.88653">
        <ele>333</ele>
        <time>2015-04-06T08:41:23Z</time>
      </trkpt>
      <trkpt lat="43.88128" lon="5.88648">
        <ele>333</ele>
        <time>2015-04-06T08:41:37Z</time>
      </trkpt>
      <trkpt lat="43.88104" lon="5.88653">
        <ele>333</ele>
        <time>2015-04-06T08:41:51Z</time>
      </trkpt>
      <trkpt lat="43.88094" lon="5.88654">
        <ele>333</ele>
        <time>2015-04-06T08:41:59Z</time>
      </trkpt>
      <trkpt lat="43.8809" lon="5.88658">
        <ele>334</ele>
        <time>2015-04-06T08:42:04Z</time>
      </trkpt>
      <trkpt lat="43.88087" lon="5.88663">
        <ele>334</ele>
        <time>2015-04-06T08:42:07Z</time>
      </trkpt>
      <trkpt lat="43.88082" lon="5.88665">
        <ele>334</ele>
        <time>2015-04-06T08:42:10Z</time>
      </trkpt>
      <trkpt lat="43.88041" lon="5.88655">
        <ele>333</ele>
        <time>2015-04-06T08:42:34Z</time>
      </trkpt>
      <trkpt lat="43.88029" lon="5.88641">
        <ele>331</ele>
        <time>2015-04-06T08:42:44Z</time>
      </trkpt>
      <trkpt lat="43.88001" lon="5.88623">
        <ele>330</ele>
        <time>2015-04-06T08:43:03Z</time>
      </trkpt>
      <trkpt lat="43.87991" lon="5.88608">
        <ele>330</ele>
        <time>2015-04-06T08:43:13Z</time>
      </trkpt>
      <trkpt lat="43.87969" lon="5.88579">
        <ele>329</ele>
        <time>2015-04-06T08:43:27Z</time>
      </trkpt>
      <trkpt lat="43.87966" lon="5.88574">
        <ele>330</ele>
        <time>2015-04-06T08:43:33Z</time>
      </trkpt>
      <trkpt lat="43.87958" lon="5.88564">
        <ele>329</ele>
        <time>2015-04-06T08:43:38Z</time>
      </trkpt>
      <trkpt lat="43.87953" lon="5.88562">
        <ele>329</ele>
        <time>2015-04-06T08:43:42Z</time>
      </trkpt>
      <trkpt lat="43.87948" lon="5.8856">
        <ele>328</ele>
        <time>2015-04-06T08:43:47Z</time>
      </trkpt>
      <trkpt lat="43.87945" lon="5.88555">
        <ele>328</ele>
        <time>2015-04-06T08:43:52Z</time>
      </trkpt>
      <trkpt lat="43.87939" lon="5.88551">
        <ele>328</ele>
        <time>2015-04-06T08:43:57Z</time>
      </trkpt>
      <trkpt lat="43.8792" lon="5.88543">
        <ele>330</ele>
        <time>2015-04-06T08:44:12Z</time>
      </trkpt>
      <trkpt lat="43.87901" lon="5.88541">
        <ele>329</ele>
        <time>2015-04-06T08:44:26Z</time>
      </trkpt>
      <trkpt lat="43.87876" lon="5.88537">
        <ele>331</ele>
        <time>2015-04-06T08:44:44Z</time>
      </trkpt>
      <trkpt lat="43.87871" lon="5.88536">
        <ele>330</ele>
        <time>2015-04-06T08:44:46Z</time>
      </trkpt>
      <trkpt lat="43.87865" lon="5.8853">
        <ele>330</ele>
        <time>2015-04-06T08:44:53Z</time>
      </trkpt>
      <trkpt lat="43.87863" lon="5.88523">
        <ele>330</ele>
        <time>2015-04-06T08:44:57Z</time>
      </trkpt>
      <trkpt lat="43.87858" lon="5.88521">
        <ele>330</ele>
        <time>2015-04-06T08:45:02Z</time>
      </trkpt>
      <trkpt lat="43.87848" lon="5.8852">
        <ele>331</ele>
        <time>2015-04-06T08:45:09Z</time>
      </trkpt>
      <trkpt lat="43.87838" lon="5.88517">
        <ele>331</ele>
        <time>2015-04-06T08:45:15Z</time>
      </trkpt>
      <trkpt lat="43.8782" lon="5.88508">
        <ele>329</ele>
        <time>2015-04-06T08:45:25Z</time>
      </trkpt>
      <trkpt lat="43.87813" lon="5.88503">
        <ele>328</ele>
        <time>2015-04-06T08:45:30Z</time>
      </trkpt>
      <trkpt lat="43.87812" lon="5.88496">
        <ele>328</ele>
        <time>2015-04-06T08:45:34Z</time>
      </trkpt>
      <trkpt lat="43.87808" lon="5.88492">
        <ele>328</ele>
        <time>2015-04-06T08:45:37Z</time>
      </trkpt>
      <trkpt lat="43.87773" lon="5.88441">
        <ele>329</ele>
        <time>2015-04-06T08:46:08Z</time>
      </trkpt>
      <trkpt lat="43.8777" lon="5.88435">
        <ele>329</ele>
        <time>2015-04-06T08:46:12Z</time>
      </trkpt>
      <trkpt lat="43.87757" lon="5.88391">
        <ele>329</ele>
        <time>2015-04-06T08:46:41Z</time>
      </trkpt>
      <trkpt lat="43.87759" lon="5.88349">
        <ele>330</ele>
        <time>2015-04-06T08:47:08Z</time>
      </trkpt>
      <trkpt lat="43.87781" lon="5.88322">
        <ele>329</ele>
        <time>2015-04-06T08:47:26Z</time>
      </trkpt>
      <trkpt lat="43.87796" lon="5.88307">
        <ele>328</ele>
        <time>2015-04-06T08:47:35Z</time>
      </trkpt>
      <trkpt lat="43.87806" lon="5.88302">
        <ele>328</ele>
        <time>2015-04-06T08:47:43Z</time>
      </trkpt>
      <trkpt lat="43.8781" lon="5.88304">
        <ele>328</ele>
        <time>2015-04-06T08:47:49Z</time>
      </trkpt>
      <trkpt lat="43.87815" lon="5.88303">
        <ele>328</ele>
        <time>2015-04-06T08:47:52Z</time>
      </trkpt>
      <trkpt lat="43.87858" lon="5.88306">
        <ele>327</ele>
        <time>2015-04-06T08:48:18Z</time>
      </trkpt>
      <trkpt lat="43.87867" lon="5.88311">
        <ele>327</ele>
        <time>2015-04-06T08:48:24Z</time>
      </trkpt>
      <trkpt lat="43.87886" lon="5.88322">
        <ele>327</ele>
        <time>2015-04-06T08:48:38Z</time>
      </trkpt>
      <trkpt lat="43.87928" lon="5.88355">
        <ele>324</ele>
        <time>2015-04-06T08:49:10Z</time>
      </trkpt>
      <trkpt lat="43.87945" lon="5.88371">
        <ele>323</ele>
        <time>2015-04-06T08:49:24Z</time>
      </trkpt>
      <trkpt lat="43.87988" lon="5.8839">
        <ele>324</ele>
        <time>2015-04-06T08:49:54Z</time>
      </trkpt>
      <trkpt lat="43.88016" lon="5.88402">
        <ele>324</ele>
        <time>2015-04-06T08:50:11Z</time>
      </trkpt>
      <trkpt lat="43.88036" lon="5.88411">
        <ele>322</ele>
        <time>2015-04-06T08:50:23Z</time>
      </trkpt>
      <trkpt lat="43.88073" lon="5.88443">
        <ele>320</ele>
        <time>2015-04-06T08:50:53Z</time>
      </trkpt>
      <trkpt lat="43.88084" lon="5.88454">
        <ele>321</ele>
        <time>2015-04-06T08:51:01Z</time>
      </trkpt>
      <trkpt lat="43.88089" lon="5.88457">
        <ele>320</ele>
        <time>2015-04-06T08:51:05Z</time>
      </trkpt>
      <trkpt lat="43.881" lon="5.88474">
        <ele>320</ele>
        <time>2015-04-06T08:51:17Z</time>
      </trkpt>
      <trkpt lat="43.88104" lon="5.88492">
        <ele>320</ele>
        <time>2015-04-06T08:51:27Z</time>
      </trkpt>
      <trkpt lat="43.88108" lon="5.88497">
        <ele>320</ele>
        <time>2015-04-06T08:51:31Z</time>
      </trkpt>
      <trkpt lat="43.88122" lon="5.88509">
        <ele>320</ele>
        <time>2015-04-06T08:51:43Z</time>
      </trkpt>
      <trkpt lat="43.88128" lon="5.88521">
        <ele>321</ele>
        <time>2015-04-06T08:51:49Z</time>
      </trkpt>
      <trkpt lat="43.88132" lon="5.88527">
        <ele>321</ele>
        <time>2015-04-06T08:51:53Z</time>
      </trkpt>
      <trkpt lat="43.88136" lon="5.88532">
        <ele>321</ele>
        <time>2015-04-06T08:51:57Z</time>
      </trkpt>
      <trkpt lat="43.88143" lon="5.88543">
        <ele>321</ele>
        <time>2015-04-06T08:52:04Z</time>
      </trkpt>
      <trkpt lat="43.88148" lon="5.88548">
        <ele>321</ele>
        <time>2015-04-06T08:52:08Z</time>
      </trkpt>
      <trkpt lat="43.88153" lon="5.88549">
        <ele>321</ele>
        <time>2015-04-06T08:52:11Z</time>
      </trkpt>
      <trkpt lat="43.88162" lon="5.8855">
        <ele>321</ele>
        <time>2015-04-06T08:52:18Z</time>
      </trkpt>
      <trkpt lat="43.88166" lon="5.88555">
        <ele>320</ele>
        <time>2015-04-06T08:52:22Z</time>
      </trkpt>
      <trkpt lat="43.88167" lon="5.88562">
        <ele>321</ele>
        <time>2015-04-06T08:52:27Z</time>
      </trkpt>
      <trkpt lat="43.88166" lon="5.88568">
        <ele>321</ele>
        <time>2015-04-06T08:52:31Z</time>
      </trkpt>
      <trkpt lat="43.88161" lon="5.88587">
        <ele>321</ele>
        <time>2015-04-06T08:52:40Z</time>
      </trkpt>
      <trkpt lat="43.88161" lon="5.88594">
        <ele>320</ele>
        <time>2015-04-06T08:52:44Z</time>
      </trkpt>
      <trkpt lat="43.88162" lon="5.886">
        <ele>320</ele>
        <time>2015-04-06T08:52:48Z</time>
      </trkpt>
      <trkpt lat="43.88159" lon="5.88614">
        <ele>322</ele>
        <time>2015-04-06T08:52:56Z</time>
      </trkpt>
      <trkpt lat="43.88164" lon="5.88626">
        <ele>322</ele>
        <time>2015-04-06T08:53:04Z</time>
      </trkpt>
      <trkpt lat="43.88174" lon="5.88641">
        <ele>322</ele>
        <time>2015-04-06T08:53:14Z</time>
      </trkpt>
      <trkpt lat="43.88177" lon="5.88647">
        <ele>322</ele>
        <time>2015-04-06T08:53:18Z</time>
      </trkpt>
      <trkpt lat="43.88187" lon="5.88665">
        <ele>323</ele>
        <time>2015-04-06T08:53:29Z</time>
      </trkpt>
      <trkpt lat="43.88205" lon="5.88706">
        <ele>323</ele>
        <time>2015-04-06T08:53:52Z</time>
      </trkpt>
      <trkpt lat="43.88207" lon="5.88711">
        <ele>323</ele>
        <time>2015-04-06T08:53:56Z</time>
      </trkpt>
      <trkpt lat="43.88225" lon="5.8873">
        <ele>324</ele>
        <time>2015-04-06T08:54:13Z</time>
      </trkpt>
      <trkpt lat="43.88237" lon="5.88744">
        <ele>322</ele>
        <time>2015-04-06T08:54:25Z</time>
      </trkpt>
      <trkpt lat="43.88246" lon="5.8875">
        <ele>322</ele>
        <time>2015-04-06T08:54:34Z</time>
      </trkpt>
      <trkpt lat="43.88285" lon="5.88777">
        <ele>324</ele>
        <time>2015-04-06T08:55:06Z</time>
      </trkpt>
      <trkpt lat="43.88318" lon="5.88805">
        <ele>324</ele>
        <time>2015-04-06T08:55:26Z</time>
      </trkpt>
      <trkpt lat="43.88351" lon="5.88845">
        <ele>326</ele>
        <time>2015-04-06T08:55:55Z</time>
      </trkpt>
      <trkpt lat="43.8837" lon="5.88859">
        <ele>325</ele>
        <time>2015-04-06T08:56:05Z</time>
      </trkpt>
      <trkpt lat="43.88388" lon="5.88857">
        <ele>325</ele>
        <time>2015-04-06T08:56:19Z</time>
      </trkpt>
      <trkpt lat="43.88392" lon="5.88858">
        <ele>325</ele>
        <time>2015-04-06T08:56:22Z</time>
      </trkpt>
      <trkpt lat="43.88395" lon="5.88852">
        <ele>325</ele>
        <time>2015-04-06T08:56:26Z</time>
      </trkpt>
      <trkpt lat="43.884" lon="5.88849">
        <ele>326</ele>
        <time>2015-04-06T08:56:31Z</time>
      </trkpt>
      <trkpt lat="43.88406" lon="5.88847">
        <ele>326</ele>
        <time>2015-04-06T08:56:34Z</time>
      </trkpt>
      <trkpt lat="43.8841" lon="5.88846">
        <ele>325</ele>
        <time>2015-04-06T08:56:36Z</time>
      </trkpt>
      <trkpt lat="43.88419" lon="5.88843">
        <ele>325</ele>
        <time>2015-04-06T08:56:41Z</time>
      </trkpt>
      <trkpt lat="43.88431" lon="5.88842">
        <ele>325</ele>
        <time>2015-04-06T08:56:49Z</time>
      </trkpt>
      <trkpt lat="43.88457" lon="5.88834">
        <ele>325</ele>
        <time>2015-04-06T08:57:10Z</time>
      </trkpt>
      <trkpt lat="43.88469" lon="5.88832">
        <ele>324</ele>
        <time>2015-04-06T08:57:18Z</time>
      </trkpt>
      <trkpt lat="43.88489" lon="5.88833">
        <ele>324</ele>
        <time>2015-04-06T08:57:30Z</time>
      </trkpt>
      <trkpt lat="43.88494" lon="5.88831">
        <ele>323</ele>
        <time>2015-04-06T08:57:34Z</time>
      </trkpt>
      <trkpt lat="43.88498" lon="5.88827">
        <ele>323</ele>
        <time>2015-04-06T08:57:40Z</time>
      </trkpt>
      <trkpt lat="43.88502" lon="5.88823">
        <ele>323</ele>
        <time>2015-04-06T08:57:44Z</time>
      </trkpt>
      <trkpt lat="43.88506" lon="5.88821">
        <ele>323</ele>
        <time>2015-04-06T08:57:48Z</time>
      </trkpt>
      <trkpt lat="43.88511" lon="5.8882">
        <ele>323</ele>
        <time>2015-04-06T08:57:53Z</time>
      </trkpt>
      <trkpt lat="43.88528" lon="5.88801">
        <ele>326</ele>
        <time>2015-04-06T08:58:10Z</time>
      </trkpt>
      <trkpt lat="43.88532" lon="5.88797">
        <ele>325</ele>
        <time>2015-04-06T08:58:14Z</time>
      </trkpt>
      <trkpt lat="43.88554" lon="5.88795">
        <ele>324</ele>
        <time>2015-04-06T08:58:28Z</time>
      </trkpt>
      <trkpt lat="43.88571" lon="5.888">
        <ele>324</ele>
        <time>2015-04-06T08:58:39Z</time>
      </trkpt>
      <trkpt lat="43.88576" lon="5.888">
        <ele>324</ele>
        <time>2015-04-06T08:58:43Z</time>
      </trkpt>
      <trkpt lat="43.88582" lon="5.888">
        <ele>324</ele>
        <time>2015-04-06T08:58:47Z</time>
      </trkpt>
      <trkpt lat="43.88587" lon="5.88801">
        <ele>323</ele>
        <time>2015-04-06T08:58:51Z</time>
      </trkpt>
      <trkpt lat="43.88591" lon="5.88801">
        <ele>323</ele>
        <time>2015-04-06T08:58:55Z</time>
      </trkpt>
      <trkpt lat="43.88606" lon="5.88808">
        <ele>323</ele>
        <time>2015-04-06T08:59:05Z</time>
      </trkpt>
      <trkpt lat="43.88611" lon="5.8881">
        <ele>323</ele>
        <time>2015-04-06T08:59:09Z</time>
      </trkpt>
      <trkpt lat="43.88621" lon="5.88811">
        <ele>323</ele>
        <time>2015-04-06T08:59:21Z</time>
      </trkpt>
      <trkpt lat="43.88617" lon="5.88811">
        <ele>324</ele>
        <time>2015-04-06T08:59:33Z</time>
      </trkpt>
      <trkpt lat="43.88615" lon="5.88806">
        <ele>325</ele>
        <time>2015-04-06T08:59:56Z</time>
      </trkpt>
      <trkpt lat="43.88614" lon="5.88801">
        <ele>325</ele>
        <time>2015-04-06T09:00:14Z</time>
      </trkpt>
    </trkseg>
  </trk>
</gpx>